地図

経路データ

SID SEASON NUMBER BASIN SUBBASIN NAME ISO_TIME NATURE LAT LON WMO_WIND WMO_PRES WMO_AGENCY TRACK_TYPE DIST2LAND LANDFALL IFLAG USA_AGENCY USA_ATCF_ID USA_LAT USA_LON USA_RECORD USA_STATUS USA_WIND USA_PRES USA_SSHS USA_R34_NE USA_R34_SE USA_R34_SW USA_R34_NW USA_R50_NE USA_R50_SE USA_R50_SW USA_R50_NW USA_R64_NE USA_R64_SE USA_R64_SW USA_R64_NW USA_POCI USA_ROCI USA_RMW USA_EYE TOKYO_LAT TOKYO_LON TOKYO_GRADE TOKYO_WIND TOKYO_PRES TOKYO_R50_DIR TOKYO_R50_LONG TOKYO_R50_SHORT TOKYO_R30_DIR TOKYO_R30_LONG TOKYO_R30_SHORT TOKYO_LAND CMA_LAT CMA_LON CMA_CAT CMA_WIND CMA_PRES HKO_LAT HKO_LON HKO_CAT HKO_WIND HKO_PRES NEWDELHI_LAT NEWDELHI_LON NEWDELHI_GRADE NEWDELHI_WIND NEWDELHI_PRES NEWDELHI_CI NEWDELHI_DP NEWDELHI_POCI REUNION_LAT REUNION_LON REUNION_TYPE REUNION_WIND REUNION_PRES REUNION_TNUM REUNION_CI REUNION_RMW REUNION_R34_NE REUNION_R34_SE REUNION_R34_SW REUNION_R34_NW REUNION_R50_NE REUNION_R50_SE REUNION_R50_SW REUNION_R50_NW REUNION_R64_NE REUNION_R64_SE REUNION_R64_SW REUNION_R64_NW BOM_LAT BOM_LON BOM_TYPE BOM_WIND BOM_PRES BOM_TNUM BOM_CI BOM_RMW BOM_R34_NE BOM_R34_SE BOM_R34_SW BOM_R34_NW BOM_R50_NE BOM_R50_SE BOM_R50_SW BOM_R50_NW BOM_R64_NE BOM_R64_SE BOM_R64_SW BOM_R64_NW BOM_ROCI BOM_POCI BOM_EYE BOM_POS_METHOD BOM_PRES_METHOD NADI_LAT NADI_LON NADI_CAT NADI_WIND NADI_PRES WELLINGTON_LAT WELLINGTON_LON WELLINGTON_WIND WELLINGTON_PRES DS824_LAT DS824_LON DS824_STAGE DS824_WIND DS824_PRES TD9636_LAT TD9636_LON TD9636_STAGE TD9636_WIND TD9636_PRES TD9635_LAT TD9635_LON TD9635_WIND TD9635_PRES TD9635_ROCI NEUMANN_LAT NEUMANN_LON NEUMANN_CLASS NEUMANN_WIND NEUMANN_PRES MLC_LAT MLC_LON MLC_CLASS MLC_WIND MLC_PRES USA_GUST BOM_GUST BOM_GUST_PER REUNION_GUST REUNION_GUST_PER USA_SEAHGT USA_SEARAD_NE USA_SEARAD_SE USA_SEARAD_SW USA_SEARAD_NW STORM_SPEED STORM_DIR
1988271N16125 1988 86 WP MM NOT_NAMED 1988-09-27 00:00:00 TS 16.0000 125.000 main 236 135 __O___________ -1 16.0000 125.000 0 17 1004 28 292
1988271N16125 1988 86 WP MM NOT_NAMED 1988-09-27 03:00:00 TS 16.5150 123.656 main 135 10 __P___________ -1 16.5150 123.656 0 18 1003 26 293
1988271N16125 1988 86 WP MM NOT_NAMED 1988-09-27 06:00:00 TS 17.0000 122.500 main 0 0 __O___________ -1 17.0000 122.500 0 19 1002 21 295
1988271N16125 1988 86 WP MM NOT_NAMED 1988-09-27 09:00:00 TS 17.3988 121.660 main 0 0 __P___________ -1 17.3988 121.660 0 19 1002 15 289
1988271N16125 1988 86 WP MM NOT_NAMED 1988-09-27 12:00:00 TS 17.5000 121.000 main 0 0 __O___________ -1 17.5000 121.000 0 19 1002 13 256
1988271N16125 1988 86 WP MM NOT_NAMED 1988-09-27 15:00:00 TS 17.0897 120.326 main 15 15 __P___________ -1 17.0897 120.326 0 19 1002 16 231
1988271N16125 1988 86 WP MM NOT_NAMED 1988-09-27 18:00:00 TS 16.5000 119.700 main 24 24 __O___________ -1 16.5000 119.700 0 19 1002 17 229
1988271N16125 1988 86 WP MM NOT_NAMED 1988-09-27 21:00:00 TS 15.9853 119.002 main 74 74 __P___________ -1 15.9853 119.002 0 19 1002 14 239
1988271N16125 1988 86 WP MM NOT_NAMED 1988-09-28 00:00:00 TS 15.8000 118.500 main 130 128 __O___________ -1 15.8000 118.500 0 19 1002 6 309
1988271N16125 1988 86 WP MM NOT_NAMED 1988-09-28 03:00:00 TS 16.3846 118.485 main 135 135 __P___________ -1 16.3846 118.485 0 24 1001 12 1
1988271N16125 1988 86 WP MM NOT_NAMED 1988-09-28 06:00:00 TS 17.0000 118.500 main 159 159 __O___________ -1 17.0000 118.500 1 29 1000 6 320
1988271N16125 1988 86 WP MM NOT_NAMED 1988-09-28 09:00:00 TS 16.8779 118.052 main 193 193 __P___________ -1 16.8779 118.052 1 29 1000 11 242
1988271N16125 1988 86 WP MM NOT_NAMED 1988-09-28 12:00:00 TS 16.5000 117.500 main 241 241 __O___________ -1 16.5000 117.500 1 29 1000 11 234
1988271N16125 1988 86 WP MM NOT_NAMED 1988-09-28 15:00:00 TS 16.2498 117.135 main 278 278 __P___________ -1 16.2498 117.135 1 29 1000 8 233
1988271N16125 1988 86 WP MM NOT_NAMED 1988-09-28 18:00:00 TS 16.0000 116.800 main 310 310 __O___________ -1 16.0000 116.800 1 29 1000 9 235
1988271N16125 1988 86 WP MM NOT_NAMED 1988-09-28 21:00:00 TS 15.7501 116.385 main 353 353 __P___________ -1 15.7501 116.385 1 29 1000 9 237
1988271N16125 1988 86 WP MM NOT_NAMED 1988-09-29 00:00:00 TS 15.5000 116.000 main 400 400 __O___________ -1 15.5000 116.000 1 29 1000 8 230
1988271N16125 1988 86 WP MM NOT_NAMED 1988-09-29 03:00:00 TS 15.2348 115.750 main 427 427 __P___________ -1 15.2348 115.750 1 29 1000 7 224
1988271N16125 1988 86 WP MM NOT_NAMED 1988-09-29 06:00:00 TS 15.0000 115.500 main 463 463 __O___________ -1 15.0000 115.500 1 29 1000 7 236
1988271N16125 1988 86 WP MM NOT_NAMED 1988-09-29 09:00:00 TS 14.8276 115.115 main 511 511 __P___________ -1 14.8276 115.115 1 29 1000 8 249
1988271N16125 1988 86 WP MM NOT_NAMED 1988-09-29 12:00:00 TS 14.7000 114.700 main 555 555 __O___________ -1 14.7000 114.700 1 29 1000 8 251
1988271N16125 1988 86 WP MM NOT_NAMED 1988-09-29 15:00:00 TS 14.5774 114.350 main 555 511 __P___________ -1 14.5774 114.350 1 29 1000 7 254
1988271N16125 1988 86 WP MM NOT_NAMED 1988-09-29 18:00:00 TS 14.5000 114.000 main 511 467 __O___________ -1 14.5000 114.000 1 29 1000 7 260
1988271N16125 1988 86 WP MM NOT_NAMED 1988-09-29 21:00:00 TS 14.4475 113.600 main 467 425 __P___________ -1 14.4475 113.600 1 29 1000 8 270
1988271N16125 1988 86 WP MM NOT_NAMED 1988-09-30 00:00:00 TS 14.5000 113.200 main 425 387 __O___________ -1 14.5000 113.200 1 29 1000 8 291
1988271N16125 1988 86 WP MM NOT_NAMED 1988-09-30 03:00:00 TS 14.7501 112.790 main 390 366 __P___________ -1 14.7501 112.790 1 29 1000 8 306
1988271N16125 1988 86 WP MM NOT_NAMED 1988-09-30 06:00:00 TS 15.0000 112.500 main 366 366 __O___________ -1 15.0000 112.500 1 29 1000 4 310
1988271N16125 1988 86 WP MM NOT_NAMED 1988-09-30 09:00:00 TS 14.9999 112.485 main 366 366 __P___________ -1 14.9999 112.485 1 29 1000 0 0
1988271N16125 1988 86 WP MM NOT_NAMED 1988-09-30 12:00:00 TS 15.0000 112.500 main 366 346 __O___________ -1 15.0000 112.500 1 29 1000 2 312
1988271N16125 1988 86 WP MM NOT_NAMED 1988-09-30 15:00:00 TS 15.1600 112.302 main 348 327 __P___________ -1 15.1600 112.302 1 29 997 8 324
1988271N16125 1988 86 WP MM NOT_NAMED 1988-09-30 18:00:00 TS 15.6600 112.000 main 330 305 __OO__________ -1 15.5000 112.000 1 29 995 16.3000 112.000 TD 30 997 12 332
1988271N16125 1988 86 WP MM NOT_NAMED 1988-09-30 21:00:00 TS 16.2534 111.694 main 296 232 __PP__________ -1 16.0776 111.636 1 29 995 16.6050 111.810 TD 30 996 13 334
1988271N16125 1988 86 WP MM NOT_NAMED 1988-10-01 00:00:00 TS 16.7857 111.429 main 232 200 __OO__________ -1 16.7000 111.300 1 29 995 16.9000 111.600 TD 30 996 10 335
1988271N16125 1988 86 WP MM NOT_NAMED 1988-10-01 03:00:00 TS 17.1649 111.246 main 184 153 __PP__________ -1 17.1448 111.135 1 29 995 17.1850 111.357 TD 30 996 8 333
1988271N16125 1988 86 WP MM NOT_NAMED 1988-10-01 06:00:00 TS 17.5000 111.050 main 153 98 __OO__________ -1 17.5000 111.000 1 29 995 17.5000 111.100 TD 30 996 8 330
1988271N16125 1988 86 WP MM NOT_NAMED 1988-10-01 09:00:00 TS 17.8875 110.815 main 98 59 __PP__________ -1 17.8525 110.765 1 29 995 17.9224 110.865 TD 30 996 9 326
1988271N16125 1988 86 WP MM NOT_NAMED 1988-10-01 12:00:00 TS 18.2000 110.550 main 59 30 __OO__________ -1 18.1000 110.500 1 29 995 18.3000 110.600 TD 30 996 7 310
1988271N16125 1988 86 WP MM NOT_NAMED 1988-10-01 15:00:00 TS 18.3375 110.257 main 30 0 __PP__________ -1 18.1725 110.250 1 29 995 18.5025 110.265 TD 30 997 6 289
1988271N16125 1988 86 WP MM NOT_NAMED 1988-10-01 18:00:00 TS 18.4000 109.950 main 0 0 __OO__________ -1 18.2000 110.000 1 29 995 18.6000 109.900 TD 30 998 6 285
1988271N16125 1988 86 WP MM NOT_NAMED 1988-10-01 21:00:00 TS 18.4963 109.631 main 0 0 __PP__________ -1 18.3350 109.735 1 29 997 18.6575 109.527 TD 30 999 6 289
1988271N16125 1988 86 WP MM NOT_NAMED 1988-10-02 00:00:00 TS 18.5857 109.371 main 0 0 __OO__________ -1 18.5000 109.500 1 29 1000 18.7000 109.200 TD 30 1000 4 298
1988271N16125 1988 86 WP MM NOT_NAMED 1988-10-02 03:00:00 TS 18.6999 109.218 main 0 0 __PP__________ -1 18.6574 109.342 1 29 1000 18.7850 108.970 TD 30 1000 3 315
1988271N16125 1988 86 WP MM NOT_NAMED 1988-10-02 06:00:00 TS 18.8200 109.120 main 0 0 __OO__________ -1 18.8000 109.200 1 29 1000 18.9000 108.800 TD 30 1000 3 313
1988271N16125 1988 86 WP MM NOT_NAMED 1988-10-02 09:00:00 TS 18.9000 108.992 main 0 0 __P___________ -1 18.9000 108.992 1 29 1000 TD 4 301
1988271N16125 1988 86 WP MM NOT_NAMED 1988-10-02 12:00:00 TS 19.0000 108.800 main 0 0 __O___________ -1 19.0000 108.800 1 29 1000 4 313
1988271N16125 1988 86 WP MM NOT_NAMED 1988-10-02 15:00:00 TS 19.1423 108.722 main 0 0 __P___________ -1 19.1423 108.722 1 29 1000 4 328
1988271N16125 1988 86 WP MM NOT_NAMED 1988-10-02 18:00:00 TS 19.3000 108.600 main 0 0 __O___________ -1 19.3000 108.600 1 29 1000 5 307
1988271N16125 1988 86 WP MM NOT_NAMED 1988-10-02 21:00:00 TS 19.4652 108.265 main 38 38 __P___________ -1 19.4652 108.265 1 29 1000 7 294
1988271N16125 1988 86 WP MM NOT_NAMED 1988-10-03 00:00:00 TS 19.6000 107.900 main 80 80 __O___________ -1 19.6000 107.900 1 29 1000 6 292
1988271N16125 1988 86 WP MM NOT_NAMED 1988-10-03 03:00:00 TS 19.6874 107.685 main 104 104 __P___________ -1 19.6874 107.685 1 29 1001 4 285
1988271N16125 1988 86 WP MM NOT_NAMED 1988-10-03 06:00:00 TS 19.7000 107.500 main 115 107 __O___________ -1 19.7000 107.500 1 29 1002 4 259
1988271N16125 1988 86 WP MM NOT_NAMED 1988-10-03 09:00:00 TS 19.6075 107.257 main 107 91 __P___________ -1 19.6075 107.257 1 26 1002 5 247
1988271N16125 1988 86 WP MM NOT_NAMED 1988-10-03 12:00:00 TS 19.5000 107.000 main 94 84 __O___________ -1 19.5000 107.000 1 23 1002 5 256
1988271N16125 1988 86 WP MM NOT_NAMED 1988-10-03 15:00:00 TS 19.4850 106.750 main 84 64 __P___________ -1 19.4850 106.750 1 23 1002 5 270
1988271N16125 1988 86 WP MM NOT_NAMED 1988-10-03 18:00:00 TS 19.5000 106.500 main 64 52 __O___________ -1 19.5000 106.500 1 23 1002 5 274
1988271N16125 1988 86 WP MM NOT_NAMED 1988-10-03 21:00:00 TS 19.5150 106.250 main 52 20 __P___________ -1 19.5150 106.250 1 23 1003 5 270
1988271N16125 1988 86 WP MM NOT_NAMED 1988-10-04 00:00:00 TS 19.5000 106.000 main 20 0 __O___________ -1 19.5000 106.000 1 23 1004 5 259
1988271N16125 1988 86 WP MM NOT_NAMED 1988-10-04 03:00:00 TS 19.4201 105.750 main 0 0 __P___________ -1 19.4201 105.750 1 21 1004 5 247
1988271N16125 1988 86 WP MM NOT_NAMED 1988-10-04 06:00:00 TS 19.3000 105.500 main 0 __O___________ -1 19.3000 105.500 0 19 1005 5 243

デジタル台風データ・検索

IBTrACS Databaseについて

本データベースは、米国NOAAが公開する1842年以降の世界の熱帯低気圧のベストトラックデータアーカイブInternational Best Track Archive for Climate Stewardship (IBTrACS)を、ウェブで閲覧しやすい形式に変換したものです。

最終更新日:2021-12-06